createdAt,value
2023-04-14T00:03:33.700Z,98764.81
2023-04-14T00:08:36.915Z,98736.91
2023-04-14T00:13:39.997Z,98742.44
2023-04-14T00:18:43.039Z,98727.97
2023-04-14T00:23:46.017Z,98709.66
2023-04-14T00:28:48.970Z,98712.09
2023-04-14T00:33:52.056Z,98706.22
2023-04-14T00:38:55.174Z,98692.16
2023-04-14T00:43:59.142Z,98700.75
2023-04-14T00:49:02.927Z,98705.72
2023-04-14T00:54:07.888Z,98703.88
2023-04-14T00:59:11.756Z,98684.94
2023-04-14T01:04:16.451Z,98685.56
2023-04-14T01:09:19.800Z,98687.41
2023-04-14T01:14:48.111Z,98676.59
2023-04-14T01:20:23.026Z,98673.56
2023-04-14T01:25:50.470Z,98664.34
2023-04-14T01:31:25.689Z,98661.91
2023-04-14T01:36:42.333Z,98627.63
2023-04-14T01:41:52.565Z,98635.59
2023-04-14T01:47:02.592Z,98617.41
2023-04-14T01:52:11.505Z,98613.72
2023-04-14T01:57:20.224Z,98592.72
2023-04-14T02:02:24.360Z,98598.44
2023-04-14T02:07:30.299Z,98597.63
2023-04-14T02:12:34.141Z,98604.94
2023-04-14T02:17:37.571Z,98594.34
2023-04-14T02:22:40.549Z,98586.19
2023-04-14T02:27:54.708Z,98573.94
2023-04-14T02:33:12.253Z,98558.22
2023-04-14T02:38:53.537Z,98567.81
2023-04-14T02:43:59.418Z,98574.34
2023-04-14T02:49:06.174Z,98588.63
2023-04-14T02:54:10.180Z,98572.31
2023-04-14T02:59:13.652Z,98576.00
2023-04-14T03:04:18.687Z,98576.63
2023-04-14T03:09:22.839Z,98565.38
2023-04-14T03:14:27.519Z,98552.69
2023-04-14T03:19:31.824Z,98546.56
2023-04-14T03:24:36.720Z,98557.19
2023-04-14T03:29:49.073Z,98558.81
2023-04-14T03:34:57.027Z,98532.28
2023-04-14T03:40:05.839Z,98531.47
2023-04-14T03:45:10.028Z,98517.16
2023-04-14T03:50:15.556Z,98506.34
2023-04-14T03:55:19.704Z,98496.72
2023-04-14T04:00:25.325Z,98505.69
2023-04-14T04:05:29.221Z,98553.91
2023-04-14T04:10:37.795Z,98604.19
2023-04-14T04:15:42.197Z,98578.66
2023-04-14T04:20:46.589Z,98569.06
2023-04-14T04:25:50.247Z,98550.47
2023-04-14T04:30:54.725Z,98571.09
2023-04-14T04:35:58.275Z,98556.00
2023-04-14T04:41:01.622Z,98541.06
2023-04-14T04:46:44.611Z,98532.31
2023-04-14T04:51:47.887Z,98526.16
2023-04-14T04:56:50.970Z,98523.44
2023-04-14T05:01:54.063Z,98536.31
2023-04-14T05:06:57.491Z,98546.91
2023-04-14T05:12:00.765Z,98556.50
2023-04-14T05:17:04.011Z,98557.94
2023-04-14T05:22:06.966Z,98575.28
2023-04-14T05:27:14.171Z,98568.34
2023-04-14T05:32:18.784Z,98570.81
2023-04-14T05:37:22.550Z,98557.97
2023-04-14T05:42:25.824Z,98543.72
2023-04-14T05:47:29.010Z,98551.25
2023-04-14T05:52:31.973Z,98551.66
2023-04-14T05:57:35.281Z,98558.00
2023-04-14T06:02:42.357Z,98567.41
2023-04-14T06:07:47.025Z,98558.44
2023-04-14T06:12:51.071Z,98554.97
2023-04-14T06:17:54.418Z,98542.69
2023-04-14T06:22:57.545Z,98539.00
2023-04-14T06:28:03.870Z,98543.03
2023-04-14T06:33:07.383Z,98538.31
2023-04-14T06:38:10.530Z,98531.88
2023-04-14T06:43:14.954Z,98525.03
2023-04-14T06:48:17.943Z,98521.47
2023-04-14T06:53:21.042Z,98523.19
2023-04-14T06:58:24.128Z,98507.19
2023-04-14T07:03:29.682Z,98506.97
2023-04-14T07:08:33.135Z,98511.59
2023-04-14T07:13:37.854Z,98509.94
2023-04-14T07:18:40.932Z,98515.16
2023-04-14T07:23:43.871Z,98505.63
2023-04-14T07:28:47.228Z,98493.72
2023-04-14T07:33:50.322Z,98487.44
2023-04-14T07:38:53.543Z,98484.44
2023-04-14T07:43:59.276Z,98478.16
2023-04-14T07:49:02.524Z,98486.88
2023-04-14T07:54:06.328Z,98482.53
2023-04-14T07:59:09.350Z,98474.69
2023-04-14T08:04:12.521Z,98474.16
2023-04-14T08:09:15.765Z,98479.84
2023-04-14T08:14:19.064Z,98482.31
2023-04-14T08:19:22.161Z,98495.69
2023-04-14T08:24:25.224Z,98502.28
2023-04-14T08:29:28.690Z,98502.53
2023-04-14T08:34:32.050Z,98490.66
2023-04-14T08:39:35.075Z,98484.59
2023-04-14T08:44:38.014Z,98470.56
2023-04-14T08:49:46.580Z,98479.50
2023-04-14T08:54:51.462Z,98478.22
2023-04-14T08:59:57.588Z,98485.16
2023-04-14T09:05:01.290Z,98500.97
2023-04-14T09:10:05.135Z,98523.94
2023-04-14T09:15:09.093Z,98513.44
2023-04-14T09:20:34.613Z,98518.84
2023-04-14T09:25:38.282Z,98523.66
2023-04-14T09:30:43.281Z,98527.84
2023-04-14T09:35:52.358Z,98536.69
2023-04-14T09:40:57.069Z,98551.84
2023-04-14T09:46:09.581Z,98535.16
2023-04-14T09:51:14.089Z,98547.84
2023-04-14T09:56:17.251Z,98547.25
2023-04-14T10:01:21.417Z,98546.47
2023-04-14T10:06:24.941Z,98536.47
2023-04-14T10:11:33.073Z,98525.25
2023-04-14T10:16:36.388Z,98503.41
2023-04-14T10:21:39.778Z,98514.22
2023-04-14T10:26:47.238Z,98521.97
2023-04-14T10:31:54.763Z,98523.19
2023-04-14T10:37:13.809Z,98527.69
2023-04-14T10:42:16.761Z,98523.44
2023-04-14T10:47:25.208Z,98527.75
2023-04-14T10:52:28.387Z,98530.00
2023-04-14T10:57:46.212Z,98524.72
2023-04-14T11:03:13.674Z,98521.25
2023-04-14T11:08:36.988Z,98508.81
2023-04-14T11:13:41.602Z,98508.19
2023-04-14T11:18:46.293Z,98515.34
2023-04-14T11:23:49.821Z,98507.41
2023-04-14T11:28:56.767Z,98496.97
2023-04-14T11:34:00.688Z,98501.03
2023-04-14T11:39:04.311Z,98497.97
2023-04-14T11:44:07.816Z,98495.53
2023-04-14T11:49:11.260Z,98500.22
2023-04-14T11:54:14.268Z,98501.69
2023-04-14T11:59:17.174Z,98494.53
2023-04-14T12:04:21.377Z,98498.59
2023-04-14T12:09:31.317Z,98487.16
2023-04-14T12:14:34.831Z,98484.50
2023-04-14T12:19:38.806Z,98487.97
2023-04-14T12:24:43.795Z,98468.16
2023-04-14T12:29:47.754Z,98474.31
2023-04-14T12:34:58.512Z,98469.00
2023-04-14T12:40:06.355Z,98469.22
2023-04-14T12:45:10.668Z,98471.47
2023-04-14T12:50:28.699Z,98453.72
2023-04-14T12:55:32.478Z,98438.03
2023-04-14T13:00:35.529Z,98426.00
2023-04-14T13:05:38.457Z,98438.84
2023-04-14T13:10:41.393Z,98469.00
2023-04-14T13:16:13.978Z,98486.53
2023-04-14T13:21:07.535Z,98489.41
2023-04-14T13:26:10.895Z,98495.72
2023-04-14T13:31:18.431Z,98499.56
2023-04-14T13:36:22.414Z,98509.34
2023-04-14T13:41:26.494Z,98522.00
2023-04-14T13:46:36.233Z,98537.94
2023-04-14T13:51:43.606Z,98531.00
2023-04-14T13:56:46.703Z,98525.69
2023-04-14T14:01:50.696Z,98526.31
2023-04-14T14:06:53.812Z,98534.88
2023-04-14T14:11:57.602Z,98514.50
2023-04-14T14:17:00.610Z,98528.16
2023-04-14T14:22:03.848Z,98546.53
2023-04-14T14:27:06.834Z,98543.88
2023-04-14T14:32:10.373Z,98553.59
2023-04-14T14:37:18.274Z,98551.97
2023-04-14T14:42:21.916Z,98573.94
2023-04-14T14:47:25.087Z,98580.22
2023-04-14T14:52:29.785Z,98583.84
2023-04-14T14:57:32.817Z,98577.50
2023-04-14T15:02:36.638Z,98592.53
2023-04-14T15:07:39.923Z,98602.28
2023-04-14T15:28:52.948Z,98643.50
2023-04-14T15:34:01.708Z,98639.78
2023-04-14T15:39:05.189Z,98637.31
2023-04-14T15:44:08.167Z,98632.09
2023-04-14T15:49:11.124Z,98645.91
2023-04-14T15:54:14.131Z,98647.69
2023-04-14T15:59:17.227Z,98646.50
2023-04-14T16:04:20.334Z,98651.78
2023-04-14T16:09:23.412Z,98665.44
2023-04-14T16:14:35.175Z,98679.47
2023-04-14T16:19:37.896Z,98695.75
2023-04-14T16:24:40.983Z,98687.50
2023-04-14T16:29:44.009Z,98684.16
2023-04-14T16:34:47.042Z,98696.06
2023-04-14T16:39:56.537Z,98701.38
2023-04-14T16:44:59.452Z,98705.31
2023-04-14T16:50:02.649Z,98725.31
2023-04-14T16:55:06.321Z,98729.41
2023-04-14T17:00:13.753Z,98743.94
2023-04-14T17:05:16.986Z,98753.94
2023-04-14T17:10:20.211Z,98765.59
2023-04-14T17:15:23.747Z,98758.09
2023-04-14T17:20:27.554Z,98766.09
2023-04-14T17:25:31.714Z,98766.00
2023-04-14T17:30:36.720Z,98767.88
2023-04-14T17:35:40.332Z,98764.31
2023-04-14T17:40:43.489Z,98774.56
2023-04-14T17:45:50.428Z,98781.03
2023-04-14T17:50:54.477Z,98791.13
2023-04-14T17:55:57.935Z,98805.50
2023-04-14T18:01:03.302Z,98814.25
2023-04-14T18:06:06.960Z,98829.25
2023-04-14T18:11:10.439Z,98841.34
2023-04-14T18:16:13.463Z,98857.38
2023-04-14T18:21:16.888Z,98873.09
2023-04-14T18:31:25.894Z,98895.25
2023-04-14T18:36:29.161Z,98897.31
2023-04-14T18:41:32.688Z,98902.59
2023-04-14T18:46:37.761Z,98902.78
2023-04-14T18:51:41.340Z,98900.50
2023-04-14T18:56:44.873Z,98910.56
2023-04-14T19:01:47.936Z,98910.72
2023-04-14T19:06:51.156Z,98918.16
2023-04-14T19:11:54.126Z,98918.66
2023-04-14T19:16:58.043Z,98908.47
2023-04-14T19:22:01.134Z,98921.81
2023-04-14T19:27:04.728Z,98926.56
2023-04-14T19:32:07.925Z,98942.34
2023-04-14T19:37:12.057Z,98950.69
2023-04-14T19:42:14.952Z,98970.94
2023-04-14T19:47:18.130Z,98990.00
2023-04-14T19:52:22.256Z,98990.81
2023-04-14T19:57:26.767Z,98994.13
2023-04-14T20:02:30.347Z,99007.13
2023-04-14T20:07:33.594Z,99010.94
2023-04-14T20:12:36.601Z,99006.31
2023-04-14T20:17:39.558Z,99011.59
2023-04-14T20:22:42.711Z,99006.31
2023-04-14T20:27:45.951Z,98998.91
2023-04-14T20:32:49.026Z,98999.88
2023-04-14T20:37:52.062Z,98997.91
2023-04-14T20:42:55.588Z,98993.44
2023-04-14T20:47:58.856Z,99005.06
2023-04-14T20:53:01.845Z,99015.72
2023-04-14T20:58:05.913Z,99029.16
2023-04-14T21:03:09.851Z,99032.41
2023-04-14T21:08:13.956Z,99035.97
2023-04-14T21:15:27.033Z,99030.66
2023-04-14T21:18:40.190Z,99045.69
2023-04-14T21:23:43.125Z,99040.41
2023-04-14T21:28:46.285Z,99023.53
2023-04-14T21:33:49.037Z,99013.72
2023-04-14T21:38:52.539Z,99017.84
2023-04-14T21:43:55.544Z,99037.13
2023-04-14T21:48:58.501Z,99052.66
2023-04-14T21:54:01.482Z,99064.00
2023-04-14T21:59:06.571Z,99065.50
2023-04-14T22:04:11.395Z,99065.06
2023-04-14T22:09:17.543Z,99074.16
2023-04-14T22:14:20.537Z,99071.06
2023-04-14T22:19:23.496Z,99076.25
2023-04-14T22:24:26.509Z,99078.94
2023-04-14T22:29:29.451Z,99079.31
2023-04-14T22:34:32.296Z,99070.81
2023-04-14T22:39:35.277Z,99075.63
2023-04-14T22:44:38.581Z,99073.53
2023-04-14T22:49:41.545Z,99072.56
2023-04-14T22:54:44.609Z,99068.63
2023-04-14T22:59:47.609Z,99078.19
2023-04-14T23:04:50.832Z,99076.75
2023-04-14T23:09:53.818Z,99094.97
2023-04-14T23:14:56.797Z,99092.03
2023-04-14T23:20:02.114Z,99086.50
2023-04-14T23:25:06.224Z,99082.72
2023-04-14T23:30:10.734Z,99092.63
2023-04-14T23:35:13.987Z,99093.31
2023-04-14T23:40:17.808Z,99102.38
2023-04-14T23:45:21.137Z,99099.13
2023-04-14T23:50:59.145Z,99105.44
2023-04-14T23:55:49.490Z,99106.44
